Time;durP1;ratioP1;P1;durP2;ratioP2;P2;SDS_P1;SDS_P2;PMS_P1;PMS_P2;Temp;Humidity;BMP_temperature;BMP_pressure;BME280_temperature;BME280_humidity;BME280_pressure;Samples;Min_cycle;Max_cycle;Signal;HPM_P1;HPM_P2
2021/11/11 00:01:47;;;;;;;15.53;8.67;;;2.60;99.90;;;;;;4991750;28;20037;-73
2021/11/11 00:04:16;;;;;;;17.20;8.20;;;2.60;99.90;;;;;;4991203;28;20027;-74
2021/11/11 00:06:42;;;;;;;20.37;8.93;;;2.50;99.90;;;;;;5005229;28;20038;-74
2021/11/11 00:09:08;;;;;;;16.67;8.83;;;2.60;99.90;;;;;;4991655;28;20023;-73
2021/11/11 00:11:33;;;;;;;18.30;9.17;;;2.70;99.90;;;;;;4991812;28;20482;-73
2021/11/11 00:13:59;;;;;;;17.67;8.77;;;2.70;99.90;;;;;;4992634;28;20026;-75
2021/11/11 00:16:25;;;;;;;18.47;9.37;;;2.70;99.90;;;;;;4991346;28;20452;-77
2021/11/11 00:18:50;;;;;;;17.60;8.70;;;2.60;99.90;;;;;;4992679;28;20105;-77
2021/11/11 00:21:16;;;;;;;17.20;9.57;;;2.70;99.90;;;;;;4992033;28;20410;-78
2021/11/11 00:23:42;;;;;;;22.03;10.03;;;2.70;99.90;;;;;;4992610;28;20098;-73
2021/11/11 00:26:08;;;;;;;23.83;12.30;;;2.60;99.90;;;;;;4992665;28;20072;-73
2021/11/11 00:28:34;;;;;;;38.13;14.13;;;2.70;99.90;;;;;;4993406;28;20026;-73
2021/11/11 00:31:00;;;;;;;33.83;14.23;;;2.70;99.90;;;;;;4994242;28;20087;-73
2021/11/11 00:33:27;;;;;;;25.07;12.13;;;2.80;99.90;;;;;;4993613;28;20113;-73
2021/11/11 00:35:53;;;;;;;19.63;10.33;;;2.80;99.90;;;;;;4994127;28;20034;-73
2021/11/11 00:38:19;;;;;;;25.60;12.47;;;2.80;99.90;;;;;;4994561;28;20364;-73
2021/11/11 00:40:45;;;;;;;31.13;13.77;;;2.80;99.90;;;;;;4994007;28;20033;-73
2021/11/11 00:43:11;;;;;;;28.80;12.43;;;2.80;99.90;;;;;;4994239;28;20018;-73
2021/11/11 00:45:38;;;;;;;29.63;12.63;;;2.80;99.90;;;;;;4992911;28;20026;-73
2021/11/11 00:48:04;;;;;;;31.37;12.43;;;2.80;99.90;;;;;;4993795;28;20045;-73
2021/11/11 00:50:32;;;;;;;32.83;14.07;;;2.80;99.90;;;;;;4993444;28;20018;-73
2021/11/11 00:52:58;;;;;;;28.17;13.30;;;2.80;99.90;;;;;;4995419;28;20018;-73
2021/11/11 00:55:23;;;;;;;26.20;12.97;;;2.80;99.90;;;;;;4993416;28;20030;-73
2021/11/11 00:57:49;;;;;;;32.40;13.57;;;2.90;99.90;;;;;;4993908;28;20367;-73
2021/11/11 01:00:17;;;;;;;31.37;13.47;;;2.90;99.90;;;;;;4993344;28;20442;-73
2021/11/11 01:02:45;;;;;;;31.67;13.63;;;3.00;99.90;;;;;;4993834;28;20033;-73
2021/11/11 01:05:11;;;;;;;33.67;14.47;;;3.00;99.90;;;;;;4994013;28;20049;-73
2021/11/11 01:07:38;;;;;;;33.10;14.17;;;3.00;99.90;;;;;;5009208;28;20317;-73
2021/11/11 01:10:05;;;;;;;38.13;15.47;;;3.00;99.90;;;;;;4994982;28;20033;-73
2021/11/11 01:12:31;;;;;;;32.73;14.07;;;3.00;99.90;;;;;;4993032;28;20018;-73
2021/11/11 01:14:56;;;;;;;31.13;13.97;;;3.00;99.90;;;;;;5010248;28;20157;-73
2021/11/11 01:17:22;;;;;;;37.73;14.30;;;3.10;99.90;;;;;;5009311;28;20026;-73
2021/11/11 01:19:48;;;;;;;32.83;14.30;;;3.10;99.90;;;;;;4994563;28;20418;-72
2021/11/11 01:22:14;;;;;;;33.33;14.97;;;3.10;99.90;;;;;;4994629;28;20025;-72
2021/11/11 01:24:39;;;;;;;28.83;14.20;;;3.00;99.90;;;;;;4993755;28;20026;-72
2021/11/11 01:27:05;;;;;;;31.17;13.53;;;3.00;99.90;;;;;;4993141;28;20371;-72
2021/11/11 01:29:31;;;;;;;40.80;14.33;;;3.00;99.90;;;;;;4992734;28;20023;-72
2021/11/11 01:31:56;;;;;;;27.27;13.20;;;3.00;99.90;;;;;;4993378;28;20456;-73
2021/11/11 01:34:26;;;;;;;32.10;13.80;;;3.00;99.90;;;;;;4994096;28;20522;-73
2021/11/11 01:36:52;;;;;;;28.50;12.93;;;2.80;99.90;;;;;;4994304;28;20511;-73
2021/11/11 01:39:17;;;;;;;29.07;13.03;;;2.80;99.90;;;;;;4992502;28;20117;-73
2021/11/11 01:41:45;;;;;;;33.10;14.37;;;2.80;99.90;;;;;;4992669;28;20494;-73
2021/11/11 01:44:12;;;;;;;33.23;13.37;;;2.80;99.90;;;;;;4992957;28;20418;-73
2021/11/11 01:46:39;;;;;;;31.80;12.90;;;2.80;99.90;;;;;;4993760;28;20025;-72
2021/11/11 01:49:05;;;;;;;35.87;14.17;;;2.80;99.90;;;;;;4994333;28;20045;-72
2021/11/11 01:51:31;;;;;;;25.67;12.87;;;2.80;99.90;;;;;;4993307;28;20030;-72
2021/11/11 01:53:57;;;;;;;27.17;14.17;;;2.80;99.90;;;;;;4992966;28;20077;-72
2021/11/11 01:56:24;;;;;;;25.77;12.93;;;2.80;99.90;;;;;;4993763;28;20105;-72
2021/11/11 01:58:51;;;;;;;53.37;15.23;;;2.90;99.90;;;;;;4993815;28;20026;-71
2021/11/11 02:01:19;;;;;;;25.53;12.70;;;2.90;99.90;;;;;;5009124;28;20033;-71
2021/11/11 02:03:46;;;;;;;27.37;12.90;;;3.00;99.90;;;;;;4993138;28;20014;-72
2021/11/11 02:06:12;;;;;;;25.40;13.27;;;3.00;99.90;;;;;;4993090;28;20487;-71
2021/11/11 02:08:37;;;;;;;31.23;13.53;;;2.90;99.90;;;;;;4993766;28;20022;-72
2021/11/11 02:11:04;;;;;;;27.83;13.83;;;2.90;99.90;;;;;;4993173;28;20026;-72
2021/11/11 02:13:29;;;;;;;50.77;14.93;;;2.90;99.90;;;;;;4991949;28;20080;-72
2021/11/11 02:15:55;;;;;;;37.60;14.67;;;2.80;99.90;;;;;;5008769;28;20139;-74
2021/11/11 02:18:21;;;;;;;66.20;17.43;;;2.80;99.90;;;;;;5008038;28;20022;-72
2021/11/11 02:20:47;;;;;;;95.83;15.67;;;2.80;99.90;;;;;;4993452;28;20049;-72
2021/11/11 02:23:17;;;;;;;36.83;13.70;;;2.90;99.90;;;;;;5008441;28;20018;-72
2021/11/11 02:25:43;;;;;;;43.97;15.70;;;2.80;99.90;;;;;;4991024;28;20452;-72
2021/11/11 02:28:12;;;;;;;44.83;13.87;;;2.80;99.90;;;;;;5008372;28;20104;-72
2021/11/11 02:30:41;;;;;;;29.27;15.13;;;2.80;99.90;;;;;;5005253;28;20022;-72
2021/11/11 02:33:26;;;;;;;70.60;16.50;;;2.80;99.90;;;;;;4993182;28;20026;-71
2021/11/11 02:35:53;;;;;;;69.17;13.87;;;2.90;99.90;;;;;;4992161;28;20355;-72
2021/11/11 02:38:19;;;;;;;48.07;14.83;;;2.80;99.90;;;;;;5008542;28;20077;-72
2021/11/11 02:40:45;;;;;;;44.73;15.47;;;2.80;99.90;;;;;;4993366;28;20034;-72
2021/11/11 02:43:13;;;;;;;54.50;15.60;;;2.80;99.90;;;;;;4993782;28;20046;-72
2021/11/11 02:45:43;;;;;;;35.90;14.33;;;2.80;99.90;;;;;;4993691;28;20018;-71
2021/11/11 02:48:10;;;;;;;39.87;14.07;;;2.80;99.90;;;;;;5010187;28;20105;-71
2021/11/11 02:50:36;;;;;;;64.30;15.20;;;2.90;99.90;;;;;;5009658;28;20119;-71
2021/11/11 02:53:03;;;;;;;46.70;16.00;;;2.90;99.90;;;;;;4994013;28;20018;-71
2021/11/11 02:55:29;;;;;;;40.50;16.07;;;2.70;99.90;;;;;;4993432;28;20024;-71
2021/11/11 02:57:56;;;;;;;39.27;15.57;;;2.70;99.90;;;;;;5008945;28;20410;-71
2021/11/11 03:00:25;;;;;;;53.07;16.43;;;2.70;99.90;;;;;;4992840;28;20054;-71
2021/11/11 03:02:52;;;;;;;45.93;18.87;;;2.70;99.90;;;;;;5008788;28;20455;-71
2021/11/11 03:05:21;;;;;;;46.73;15.73;;;2.60;99.90;;;;;;4994086;28;20072;-71
2021/11/11 03:07:47;;;;;;;39.70;18.63;;;2.60;99.90;;;;;;4993833;28;20376;-71
2021/11/11 03:10:17;;;;;;;45.63;19.70;;;2.70;99.90;;;;;;5008891;28;20030;-70
2021/11/11 03:12:44;;;;;;;40.40;18.17;;;2.80;99.90;;;;;;5008317;28;20022;-71
2021/11/11 03:15:12;;;;;;;44.27;18.17;;;2.70;99.90;;;;;;4993649;28;20470;-71
2021/11/11 03:17:39;;;;;;;58.17;18.80;;;2.80;99.90;;;;;;4993026;28;20018;-72
2021/11/11 03:20:05;;;;;;;35.50;17.57;;;2.90;99.90;;;;;;5008625;28;20034;-71
2021/11/11 03:22:31;;;;;;;34.70;16.20;;;2.90;99.90;;;;;;4992732;28;20041;-72
2021/11/11 03:24:59;;;;;;;35.77;16.37;;;2.90;99.90;;;;;;4992466;28;20443;-72
2021/11/11 03:27:25;;;;;;;36.50;15.57;;;2.90;99.90;;;;;;5008205;28;20030;-72
2021/11/11 03:29:54;;;;;;;51.07;13.37;;;2.80;99.90;;;;;;4992155;28;20022;-72
2021/11/11 03:32:21;;;;;;;27.27;11.73;;;2.80;99.90;;;;;;4993490;28;20034;-72
2021/11/11 03:34:49;;;;;;;38.93;13.50;;;2.90;99.90;;;;;;4992848;28;20030;-72
2021/11/11 03:37:14;;;;;;;29.30;12.50;;;2.90;99.90;;;;;;4993096;28;20456;-72
2021/11/11 03:39:40;;;;;;;22.47;12.33;;;2.80;99.90;;;;;;4992849;28;20085;-72
2021/11/11 03:42:09;;;;;;;26.37;12.17;;;2.80;99.90;;;;;;4993271;28;20022;-71
2021/11/11 03:44:35;;;;;;;32.43;12.93;;;2.90;99.90;;;;;;5007886;28;20025;-72
2021/11/11 03:47:02;;;;;;;26.47;12.63;;;2.80;99.90;;;;;;5008460;28;20018;-72
2021/11/11 03:49:30;;;;;;;24.00;11.87;;;2.80;99.90;;;;;;4992973;28;20109;-72
2021/11/11 03:51:55;;;;;;;21.73;10.97;;;2.90;99.90;;;;;;5008361;28;20034;-72
2021/11/11 03:54:24;;;;;;;24.27;11.13;;;2.90;99.90;;;;;;5007981;28;20022;-71
2021/11/11 03:56:50;;;;;;;31.90;11.20;;;3.00;99.90;;;;;;5008295;28;20349;-72
2021/11/11 03:59:17;;;;;;;26.93;11.97;;;3.00;99.90;;;;;;4991789;28;20074;-72
2021/11/11 04:01:44;;;;;;;22.33;11.27;;;2.90;99.90;;;;;;4994788;28;20141;-71
2021/11/11 04:04:10;;;;;;;26.07;12.73;;;2.90;99.90;;;;;;4995902;28;20117;-71
2021/11/11 04:06:36;;;;;;;24.77;11.50;;;2.80;99.90;;;;;;4995393;28;20113;-71
2021/11/11 04:09:03;;;;;;;23.87;12.53;;;2.80;99.90;;;;;;5012129;28;20046;-71
2021/11/11 04:11:30;;;;;;;24.80;12.33;;;2.80;99.90;;;;;;4995299;28;20467;-71
2021/11/11 04:13:57;;;;;;;21.70;11.90;;;2.90;99.90;;;;;;5012237;28;20022;-74
2021/11/11 04:16:23;;;;;;;29.97;12.67;;;2.90;99.90;;;;;;4996908;28;20026;-74
2021/11/11 04:18:49;;;;;;;24.43;12.03;;;2.90;99.90;;;;;;5011446;28;20412;-74
2021/11/11 04:21:17;;;;;;;58.07;12.93;;;2.90;99.90;;;;;;5011813;28;20130;-74
2021/11/11 04:23:46;;;;;;;32.43;12.50;;;2.90;99.90;;;;;;4996268;28;20026;-73
2021/11/11 04:26:24;;;;;;;32.60;12.33;;;2.90;99.90;;;;;;5011803;28;20022;-73
2021/11/11 04:29:02;;;;;;;25.80;11.70;;;2.90;99.90;;;;;;4996168;28;20019;-73
2021/11/11 04:31:31;;;;;;;28.60;11.83;;;3.00;99.90;;;;;;4996074;28;20022;-75
2021/11/11 04:34:03;;;;;;;21.20;11.60;;;3.00;99.90;;;;;;4996607;28;20046;-74
2021/11/11 04:36:57;;;;;;;26.83;11.55;;;3.10;99.90;;;;;;4996095;28;20028;-74
2021/11/11 04:39:43;;;;;;;38.77;10.87;;;3.10;99.90;;;;;;4996188;28;20035;-73
2021/11/11 05:03:44;;;;;;;24.63;11.23;;;2.80;99.90;;;;;;4995536;28;20439;-73
2021/11/11 05:06:10;;;;;;;41.30;11.50;;;2.90;99.90;;;;;;5010894;28;20567;-74
2021/11/11 05:08:36;;;;;;;20.17;10.27;;;2.90;99.90;;;;;;5010461;28;20113;-74
2021/11/11 05:11:03;;;;;;;22.00;10.43;;;2.90;99.90;;;;;;5010959;28;20049;-73
2021/11/11 05:13:29;;;;;;;25.37;11.07;;;3.00;99.90;;;;;;5010751;28;20018;-74
2021/11/11 05:15:55;;;;;;;24.20;10.27;;;3.00;99.90;;;;;;4994576;28;20034;-73
2021/11/11 05:18:21;;;;;;;25.70;12.00;;;3.00;99.90;;;;;;4995831;28;20019;-73
2021/11/11 05:20:48;;;;;;;34.90;12.37;;;3.10;99.90;;;;;;5010203;28;20365;-74
2021/11/11 05:23:13;;;;;;;21.83;11.47;;;3.00;99.90;;;;;;5010667;28;20029;-74
2021/11/11 05:25:40;;;;;;;38.47;12.07;;;3.00;99.90;;;;;;5010109;28;20026;-74
2021/11/11 05:28:05;;;;;;;29.53;11.53;;;3.00;99.90;;;;;;5010587;28;20109;-74
2021/11/11 05:30:32;;;;;;;23.47;11.33;;;3.00;99.90;;;;;;5010214;28;20050;-74
2021/11/11 05:32:58;;;;;;;34.90;11.23;;;3.00;99.90;;;;;;4993979;28;20435;-73
2021/11/11 05:35:25;;;;;;;25.43;12.40;;;3.00;99.90;;;;;;4993916;28;20472;-74
2021/11/11 05:37:51;;;;;;;32.43;11.50;;;3.00;99.90;;;;;;4993242;28;20369;-74
2021/11/11 05:40:19;;;;;;;36.63;11.77;;;3.10;99.90;;;;;;5010203;28;20044;-74
2021/11/11 05:42:45;;;;;;;24.17;11.53;;;3.10;99.90;;;;;;4993610;28;20360;-74
2021/11/11 05:45:12;;;;;;;36.53;11.40;;;3.10;99.90;;;;;;4992105;28;20022;-74
2021/11/11 05:47:39;;;;;;;33.37;11.17;;;3.10;99.90;;;;;;4988356;28;20110;-74
2021/11/11 05:50:06;;;;;;;83.67;14.37;;;3.10;99.90;;;;;;4993820;28;20053;-74
2021/11/11 05:52:32;;;;;;;35.13;12.83;;;3.00;99.90;;;;;;4994488;28;20376;-77
2021/11/11 05:54:57;;;;;;;47.80;14.03;;;3.10;99.90;;;;;;4994984;28;20030;-74
2021/11/11 05:57:23;;;;;;;58.23;13.10;;;3.10;99.90;;;;;;4992523;28;20019;-75
2021/11/11 05:59:49;;;;;;;46.57;12.37;;;3.10;99.90;;;;;;4994047;28;20113;-74
2021/11/11 06:02:16;;;;;;;25.93;10.93;;;3.10;99.90;;;;;;4993634;28;20129;-74
2021/11/11 06:04:42;;;;;;;23.27;10.10;;;3.10;99.90;;;;;;4994363;28;20033;-74
2021/11/11 06:07:08;;;;;;;28.70;10.30;;;3.00;99.90;;;;;;4993729;28;20027;-74
2021/11/11 06:09:34;;;;;;;18.80;9.20;;;3.00;99.90;;;;;;4993130;28;20057;-74
2021/11/11 06:12:00;;;;;;;24.63;9.10;;;3.00;99.90;;;;;;4993590;28;20027;-74
2021/11/11 06:14:26;;;;;;;17.03;9.27;;;3.00;99.90;;;;;;4995071;28;20026;-71
2021/11/11 06:16:51;;;;;;;25.87;9.87;;;3.10;99.90;;;;;;5025691;28;20026;-71
2021/11/11 06:19:17;;;;;;;20.73;9.03;;;3.20;99.90;;;;;;4994659;28;20045;-73
2021/11/11 06:21:44;;;;;;;23.03;10.30;;;3.10;99.90;;;;;;4994025;28;20108;-74
2021/11/11 06:24:10;;;;;;;30.20;10.33;;;3.10;99.90;;;;;;4992579;28;20026;-74
2021/11/11 06:26:35;;;;;;;19.63;9.93;;;3.20;99.90;;;;;;4992800;28;20085;-72
2021/11/11 06:29:02;;;;;;;22.63;10.40;;;3.20;99.90;;;;;;4993210;28;20046;-71
2021/11/11 06:31:28;;;;;;;26.17;10.53;;;3.20;99.90;;;;;;4993167;28;20062;-74
2021/11/11 06:33:54;;;;;;;25.20;11.07;;;3.20;99.90;;;;;;4992481;28;20307;-74
2021/11/11 06:36:21;;;;;;;25.90;10.63;;;3.20;99.90;;;;;;5009304;28;20026;-74
2021/11/11 06:38:47;;;;;;;24.53;11.37;;;3.20;99.90;;;;;;5008561;28;20112;-73
2021/11/11 06:41:12;;;;;;;24.27;10.20;;;3.30;99.90;;;;;;4994210;28;20105;-74
2021/11/11 06:43:39;;;;;;;22.23;10.57;;;3.30;99.90;;;;;;4993623;28;20053;-75
2021/11/11 06:46:06;;;;;;;22.80;11.20;;;3.30;99.90;;;;;;5009284;28;20113;-73
2021/11/11 06:48:32;;;;;;;32.53;11.50;;;3.30;99.90;;;;;;5009031;28;20077;-72
2021/11/11 06:50:58;;;;;;;27.30;11.37;;;3.30;99.90;;;;;;5008570;28;20048;-72
2021/11/11 06:53:24;;;;;;;40.40;17.77;;;3.30;99.90;;;;;;4993847;28;20525;-71
2021/11/11 06:55:50;;;;;;;29.57;13.43;;;3.30;99.90;;;;;;5008543;28;20023;-72
2021/11/11 06:58:21;;;;;;;33.70;13.60;;;3.30;99.90;;;;;;5009076;28;20184;-72
2021/11/11 07:00:47;;;;;;;35.33;13.90;;;3.30;99.90;;;;;;5008151;28;20054;-74
2021/11/11 07:03:12;;;;;;;35.70;13.70;;;3.40;99.90;;;;;;5009241;28;20341;-71
2021/11/11 07:05:39;;;;;;;30.00;12.50;;;3.40;99.90;;;;;;5008373;28;20100;-73
2021/11/11 07:08:08;;;;;;;35.63;14.10;;;3.40;99.90;;;;;;4993816;28;20038;-72
2021/11/11 07:10:35;;;;;;;31.67;13.17;;;3.40;99.90;;;;;;5008720;28;20038;-71
2021/11/11 07:13:01;;;;;;;29.07;12.87;;;3.40;99.90;;;;;;5008089;28;20019;-72
2021/11/11 07:15:27;;;;;;;34.47;14.10;;;3.50;99.90;;;;;;5008474;28;20022;-71
2021/11/11 07:17:52;;;;;;;36.53;13.90;;;3.60;99.90;;;;;;5008202;28;20018;-71
2021/11/11 07:20:18;;;;;;;35.70;14.17;;;3.60;99.90;;;;;;4993554;28;20025;-72
2021/11/11 07:22:45;;;;;;;34.80;13.83;;;3.50;99.90;;;;;;5008193;28;20068;-72
2021/11/11 07:25:13;;;;;;;37.57;13.40;;;3.60;99.90;;;;;;5008933;28;20029;-72
2021/11/11 07:27:39;;;;;;;44.37;14.33;;;3.50;99.90;;;;;;4993078;28;20018;-72
2021/11/11 07:30:10;;;;;;;32.87;13.93;;;3.60;99.90;;;;;;5008511;28;20033;-71
2021/11/11 07:32:36;;;;;;;35.17;14.73;;;3.60;99.90;;;;;;5008702;28;20455;-71
2021/11/11 07:35:02;;;;;;;40.17;14.10;;;3.60;99.90;;;;;;4992892;28;20026;-72
2021/11/11 07:37:28;;;;;;;30.63;13.47;;;3.60;99.90;;;;;;4993034;28;20081;-72
2021/11/11 07:39:54;;;;;;;33.77;14.47;;;3.60;99.90;;;;;;5007930;28;20559;-72
2021/11/11 07:42:22;;;;;;;37.83;14.47;;;3.60;99.90;;;;;;4993517;28;20113;-72
2021/11/11 07:44:48;;;;;;;35.77;13.27;;;3.60;99.90;;;;;;5008022;28;20022;-72
2021/11/11 07:47:17;;;;;;;35.10;13.93;;;3.70;99.90;;;;;;5008554;28;20360;-72
2021/11/11 07:49:43;;;;;;;30.33;12.80;;;3.70;99.90;;;;;;5007864;28;20022;-72
2021/11/11 07:52:10;;;;;;;30.33;12.80;;;3.80;99.90;;;;;;5008363;28;20371;-72
2021/11/11 07:54:36;;;;;;;26.90;12.30;;;3.80;99.90;;;;;;5008071;28;20034;-72
2021/11/11 07:57:02;;;;;;;29.00;11.70;;;3.90;99.90;;;;;;5007541;28;20080;-72
2021/11/11 07:59:27;;;;;;;28.50;11.97;;;3.80;99.90;;;;;;5008205;28;20049;-72
2021/11/11 08:01:53;;;;;;;21.17;10.93;;;3.90;99.90;;;;;;5007807;28;20375;-72
2021/11/11 08:04:19;;;;;;;27.57;11.97;;;3.90;99.90;;;;;;4993496;28;20029;-72
2021/11/11 08:06:45;;;;;;;26.67;12.10;;;3.90;99.90;;;;;;5007491;28;20045;-72
2021/11/11 08:09:10;;;;;;;33.33;12.63;;;3.90;99.90;;;;;;4992923;28;20383;-72
2021/11/11 08:11:36;;;;;;;29.87;12.70;;;3.90;99.90;;;;;;5008274;28;20033;-71
2021/11/11 08:14:05;;;;;;;31.70;13.00;;;3.80;99.90;;;;;;4992218;28;20486;-72
2021/11/11 08:16:31;;;;;;;34.23;13.47;;;3.80;99.90;;;;;;5008320;28;20117;-72
2021/11/11 08:18:59;;;;;;;33.33;13.23;;;3.90;99.90;;;;;;5007543;28;20022;-72
2021/11/11 08:21:25;;;;;;;34.00;13.93;;;3.90;99.90;;;;;;5007564;28;20058;-72
2021/11/11 08:23:50;;;;;;;31.07;14.40;;;3.90;99.90;;;;;;4992318;28;20033;-72
2021/11/11 08:26:16;;;;;;;37.63;15.53;;;4.00;99.90;;;;;;5008006;28;20027;-72
2021/11/11 08:28:42;;;;;;;48.33;15.87;;;3.90;99.90;;;;;;5007390;28;20088;-72
2021/11/11 08:31:08;;;;;;;51.73;16.40;;;3.90;99.90;;;;;;4993088;28;20514;-71
2021/11/11 08:33:33;;;;;;;41.13;16.50;;;4.00;99.90;;;;;;5007814;28;20143;-71
2021/11/11 08:35:59;;;;;;;52.90;15.83;;;4.00;99.90;;;;;;5007234;28;20026;-71
2021/11/11 08:38:27;;;;;;;51.97;15.83;;;4.00;99.90;;;;;;4992519;28;20490;-71
2021/11/11 08:40:55;;;;;;;53.83;16.77;;;4.00;99.90;;;;;;5007286;28;20037;-71
2021/11/11 08:43:21;;;;;;;45.27;16.07;;;4.10;99.90;;;;;;4992697;28;20029;-72
2021/11/11 08:45:49;;;;;;;43.77;16.53;;;4.10;99.90;;;;;;4992269;28;20064;-71
2021/11/11 08:48:15;;;;;;;45.20;15.73;;;4.20;99.90;;;;;;4995552;28;20456;-72
2021/11/11 08:50:42;;;;;;;44.63;16.10;;;4.20;99.90;;;;;;5011390;28;20034;-72
2021/11/11 08:53:12;;;;;;;43.10;16.63;;;4.20;99.90;;;;;;4996306;28;20102;-72
2021/11/11 08:55:38;;;;;;;48.80;17.23;;;4.20;99.90;;;;;;5011257;28;20022;-72
2021/11/11 08:58:06;;;;;;;50.33;17.63;;;4.30;99.90;;;;;;5010767;28;20348;-72
2021/11/11 09:00:34;;;;;;;61.03;17.57;;;4.30;99.90;;;;;;4984756;28;20108;-73
2021/11/11 09:03:02;;;;;;;48.50;16.80;;;4.30;99.90;;;;;;5011414;28;20045;-73
2021/11/11 09:05:32;;;;;;;50.70;17.87;;;4.30;99.90;;;;;;5011483;28;20050;-73
2021/11/11 09:08:03;;;;;;;46.90;17.37;;;4.30;99.90;;;;;;4994727;28;20038;-74
2021/11/11 09:10:29;;;;;;;55.53;18.70;;;4.30;99.90;;;;;;4994926;28;20456;-73
2021/11/11 09:12:55;;;;;;;55.00;17.80;;;4.30;99.90;;;;;;5010463;28;20026;-73
2021/11/11 09:15:24;;;;;;;55.50;18.10;;;4.30;99.90;;;;;;5010870;28;20479;-74
2021/11/11 09:17:52;;;;;;;49.63;16.57;;;4.20;99.90;;;;;;5010407;28;20022;-73
2021/11/11 09:20:18;;;;;;;51.93;18.03;;;4.30;99.90;;;;;;5009649;28;20031;-73
2021/11/11 09:22:49;;;;;;;47.37;18.47;;;4.30;99.90;;;;;;5009988;28;20108;-73
2021/11/11 09:25:15;;;;;;;58.57;17.80;;;4.30;99.90;;;;;;5010735;28;20463;-72
2021/11/11 09:27:43;;;;;;;48.37;16.27;;;4.30;99.90;;;;;;4995551;28;20054;-72
2021/11/11 09:30:13;;;;;;;43.30;16.10;;;4.40;99.90;;;;;;4994469;28;20022;-72
2021/11/11 09:32:40;;;;;;;43.27;16.47;;;4.40;99.90;;;;;;4994792;28;20023;-72
2021/11/11 09:35:06;;;;;;;43.57;16.73;;;4.40;99.90;;;;;;4994585;28;20041;-73
2021/11/11 09:37:34;;;;;;;46.40;17.33;;;4.50;99.90;;;;;;5008527;28;20019;-73
2021/11/11 09:40:00;;;;;;;45.30;16.77;;;4.50;99.90;;;;;;5007614;28;20125;-73
2021/11/11 09:42:27;;;;;;;48.83;16.77;;;4.50;99.90;;;;;;4992706;28;20161;-73
2021/11/11 09:44:53;;;;;;;48.20;16.87;;;4.50;99.90;;;;;;5008472;28;20037;-72
2021/11/11 09:47:19;;;;;;;39.27;17.23;;;4.50;99.90;;;;;;4994498;28;20018;-71
2021/11/11 09:49:48;;;;;;;48.93;17.10;;;4.60;99.90;;;;;;4987678;28;20030;-72
2021/11/11 09:52:14;;;;;;;38.37;16.60;;;4.60;99.90;;;;;;5006821;28;20033;-72
2021/11/11 10:00:09;;;;;;;48.97;18.10;;;4.40;99.90;;;;;;4991386;28;20053;-74
2021/11/11 10:02:35;;;;;;;46.43;17.93;;;4.50;99.90;;;;;;4992780;28;20494;-72
2021/11/11 10:05:01;;;;;;;46.00;17.70;;;4.60;99.90;;;;;;5007604;28;20026;-71
2021/11/11 10:07:27;;;;;;;43.40;17.77;;;4.60;99.90;;;;;;4991035;28;20038;-72
2021/11/11 10:09:52;;;;;;;43.63;17.10;;;4.60;99.90;;;;;;4989305;28;20034;-71
2021/11/11 10:12:21;;;;;;;46.80;17.50;;;4.60;99.90;;;;;;4990823;28;20030;-72
2021/11/11 10:14:49;;;;;;;40.37;16.90;;;4.60;99.90;;;;;;5005362;28;20121;-73
2021/11/11 10:17:17;;;;;;;47.03;18.17;;;4.60;99.90;;;;;;4990601;28;20027;-72
2021/11/11 10:19:47;;;;;;;43.30;17.73;;;4.60;99.90;;;;;;4989542;28;20054;-73
2021/11/11 10:22:22;;;;;;;46.90;17.07;;;4.70;99.90;;;;;;4991367;28;20467;-72
2021/11/11 10:24:54;;;;;;;45.10;17.53;;;4.70;99.90;;;;;;4992299;28;20034;-74
2021/11/11 10:30:12;;;;;;;47.57;16.93;;;4.70;99.90;;;;;;4990198;28;20032;-72
2021/11/11 10:33:09;;;;;;;43.25;16.33;;;4.70;99.90;;;;;;4989606;28;20026;-72
2021/11/11 10:35:43;;;;;;;45.27;18.00;;;4.80;99.90;;;;;;4989860;28;20039;-75
2021/11/11 10:38:14;;;;;;;48.33;17.50;;;4.80;99.90;;;;;;4988761;28;20542;-74
2021/11/11 10:40:43;;;;;;;48.70;18.35;;;4.80;99.90;;;;;;4991000;28;20030;-74
2021/11/11 10:43:21;;;;;;;49.90;18.50;;;4.90;99.90;;;;;;4990212;28;20795;-72
2021/11/11 10:45:50;;;;;;;50.53;18.93;;;4.90;99.90;;;;;;4986777;28;20030;-72
2021/11/11 10:48:18;;;;;;;51.83;20.00;;;4.90;99.90;;;;;;4988988;28;20037;-75
2021/11/11 10:50:47;;;;;;;52.37;19.07;;;4.90;99.90;;;;;;4989077;28;20045;-74
2021/11/11 10:53:18;;;;;;;49.73;19.63;;;5.00;99.90;;;;;;4990091;28;20026;-75
2021/11/11 10:55:50;;;;;;;41.40;18.07;;;5.00;99.90;;;;;;4988435;28;20033;-72
2021/11/11 10:58:21;;;;;;;48.38;18.90;;;5.10;99.90;;;;;;4989748;28;20049;-72
2021/11/11 11:01:01;;;;;;;47.20;18.63;;;5.10;99.90;;;;;;4985789;28;20490;-72
2021/11/11 11:03:35;;;;;;;43.97;18.27;;;5.10;99.90;;;;;;5005665;28;20474;-73
2021/11/11 11:06:11;;;;;;;46.27;19.93;;;5.10;99.90;;;;;;4992630;28;20120;-72
2021/11/11 11:08:47;;;;;;;49.33;19.30;;;5.00;99.90;;;;;;4991454;28;20553;-72
2021/11/11 11:11:17;;;;;;;45.63;18.70;;;5.00;99.90;;;;;;4991696;28;20027;-72
2021/11/11 11:13:49;;;;;;;46.47;19.57;;;5.00;99.90;;;;;;4992082;28;20341;-74
2021/11/11 11:16:19;;;;;;;47.10;18.67;;;5.10;99.90;;;;;;5008049;28;20033;-72
2021/11/11 11:18:48;;;;;;;38.87;17.53;;;5.10;99.90;;;;;;4992122;28;20049;-72
2021/11/11 11:21:20;;;;;;;43.27;17.33;;;5.20;99.90;;;;;;4991789;28;20030;-72
2021/11/11 11:23:49;;;;;;;44.10;18.70;;;5.20;99.90;;;;;;4993106;28;20033;-71
2021/11/11 11:26:25;;;;;;;48.87;19.37;;;5.20;99.90;;;;;;4988367;28;20038;-71
2021/11/11 11:29:19;;;;;;;46.57;18.53;;;5.20;99.90;;;;;;4992043;28;20030;-72
2021/11/11 11:32:08;;;;;;;49.43;20.63;;;5.20;99.90;;;;;;4978646;28;20423;-72
2021/11/11 11:34:38;;;;;;;52.40;19.30;;;5.20;99.90;;;;;;4988850;28;20109;-71
2021/11/11 11:37:16;;;;;;;53.60;20.10;;;5.20;99.90;;;;;;4989825;28;20041;-72
2021/11/11 11:39:51;;;;;;;49.27;19.50;;;5.20;99.90;;;;;;4990633;28;20022;-72
2021/11/11 11:42:30;;;;;;;52.17;21.67;;;5.30;99.90;;;;;;4989460;28;20034;-71
2021/11/11 11:44:59;;;;;;;48.93;19.20;;;5.30;99.90;;;;;;5004701;28;20080;-72
2021/11/11 11:47:42;;;;;;;50.97;20.33;;;5.30;99.90;;;;;;4990816;28;20448;-72
2021/11/11 11:50:46;;;;;;;53.63;20.67;;;5.30;99.90;;;;;;4990449;28;20027;-71
2021/11/11 11:53:14;;;;;;;49.70;19.80;;;5.30;99.90;;;;;;5007450;28;20025;-73
2021/11/11 11:55:47;;;;;;;58.37;20.33;;;5.30;99.90;;;;;;4988203;28;20626;-73
2021/11/11 11:59:00;;;;;;;51.07;19.63;;;5.30;99.90;;;;;;4988072;28;20070;-73
2021/11/11 12:04:17;;;;;;;46.77;19.97;;;5.30;99.90;;;;;;4997741;28;20096;-71
2021/11/11 12:09:24;;;;;;;51.83;20.53;;;5.40;99.90;;;;;;4988094;28;20045;-71
2021/11/11 12:40:30;;;;;;;61.93;22.87;;;5.40;99.90;;;;;;4980952;28;20039;-72
2021/11/11 12:43:00;;;;;;;64.63;22.77;;;5.50;99.90;;;;;;5006995;28;20042;-72
2021/11/11 12:45:35;;;;;;;60.10;22.63;;;5.50;99.90;;;;;;4988746;28;20030;-72
2021/11/11 12:48:10;;;;;;;61.50;22.37;;;5.50;99.90;;;;;;4992467;28;20026;-73
2021/11/11 12:50:48;;;;;;;62.03;23.37;;;5.50;99.90;;;;;;4978558;28;20030;-73
2021/11/11 12:53:14;;;;;;;65.17;22.57;;;5.50;99.90;;;;;;4991803;28;20106;-73
2021/11/11 12:55:41;;;;;;;67.03;24.47;;;5.60;99.90;;;;;;4991568;28;20038;-73
2021/11/11 12:58:09;;;;;;;57.23;22.13;;;5.60;99.90;;;;;;4991230;28;20081;-74
2021/11/11 13:00:43;;;;;;;60.17;23.03;;;5.70;99.90;;;;;;4993264;28;20065;-73
2021/11/11 13:03:10;;;;;;;62.60;23.13;;;5.60;99.90;;;;;;4992425;28;20037;-73
2021/11/11 13:05:57;;;;;;;54.17;21.67;;;5.60;99.90;;;;;;5007374;28;20411;-72
2021/11/11 13:08:51;;;;;;;64.77;23.57;;;5.60;99.90;;;;;;4991499;28;20031;-72
2021/11/11 13:11:29;;;;;;;63.00;23.53;;;5.60;99.90;;;;;;4990151;28;20053;-72
2021/11/11 13:14:13;;;;;;;63.70;24.20;;;5.60;99.90;;;;;;4991448;28;20400;-72
2021/11/11 13:16:39;;;;;;;60.83;22.60;;;5.60;99.90;;;;;;4977424;28;20117;-72
2021/11/11 13:19:04;;;;;;;62.37;23.70;;;5.60;99.90;;;;;;4990090;28;20134;-72
2021/11/11 13:21:48;;;;;;;70.80;25.10;;;5.60;99.90;;;;;;4990597;28;20064;-72
2021/11/11 13:59:47;;;;;;;71.60;24.23;;;5.70;99.90;;;;;;4990226;28;20053;-71
2021/11/11 15:15:28;;;;;;;63.17;21.70;;;5.60;99.90;;;;;;4989771;28;20072;-73
2021/11/11 15:20:56;;;;;;;67.93;22.03;;;5.40;99.90;;;;;;4985283;28;20089;-73
2021/11/11 16:02:47;;;;;;;63.17;21.17;;;5.20;99.90;;;;;;4982296;28;20026;-72
2021/11/11 16:24:48;;;;;;;58.60;18.93;;;5.20;99.90;;;;;;4992839;28;20026;-72
2021/11/11 16:27:16;;;;;;;57.57;19.90;;;5.20;99.90;;;;;;4991071;28;20404;-72
2021/11/11 16:29:42;;;;;;;59.53;20.20;;;5.20;99.90;;;;;;4975202;28;20030;-72
2021/11/11 16:32:08;;;;;;;58.03;20.87;;;5.20;99.90;;;;;;4991915;28;20481;-72
2021/11/11 16:34:34;;;;;;;57.30;19.43;;;5.20;99.90;;;;;;4991629;28;20049;-72
2021/11/11 16:37:01;;;;;;;58.37;20.27;;;5.20;99.90;;;;;;4992238;28;20100;-73
2021/11/11 16:39:27;;;;;;;62.30;20.63;;;5.10;99.90;;;;;;4991408;28;20031;-72